Atkinson, NE (68713)

8:44 PM CDT on August 19, 2017 (GMT -0500)
The O'Neill Municipal-Baker | | Change Station
Active Advisory: Severe Thunderstorm Watch

Elev 2031 ft 42.47 °N, 98.69 °W | Updated 9 minutes ago

Partly Cloudy
Partly Cloudy
78 °F
Feels Like 78 °F
N
15
Wind Variable Wind from South
Gusts 18 mph

Today
High -- | Low -- °F
--% Chance of Precip.
Yesterday
High -- | Low -- °F
Precip. -- in
Pressure 29.83 in
Visibility 10.0 miles
Clouds Scattered Clouds 9000 ft
Scattered Clouds 11000 ft
Dew Point 70 °F
Humidity 77%
Rainfall 0.00 in
Snow Depth Not available.
6:47 AM 8:30 PM
Waning Crescent, 4% visible
METAR KONL 200135Z AUTO 18013G16KT 10SM SCT090 SCT110 26/21 A2983 RMK AO2 T02570213 TSNO
Pressure 29.83 in
Visibility 10.0 miles
Clouds Scattered Clouds 9000 ft
Scattered Clouds 11000 ft
Dew Point 70 °F
Humidity 77%
Rainfall 0.00 in
Snow Depth Not available.
6:47 AM 8:30 PM
Waning Crescent, 4% visible
METAR KONL 200135Z AUTO 18013G16KT 10SM SCT090 SCT110 26/21 A2983 RMK AO2 T02570213 TSNO

Get Your Daily Forecast Email!

Thanks for signing up!

Be on the lookout for a verification email in your inbox.

You'll start receiving severe weather alerts in your inbox..

×

10-Day Weather Forecast

Almanac

Astronomy

Aug. 19, 2017 Rise Set
Actual Time
Civil Twilight
Nautical Twilight
Astronomical Twilight
Moon
Length of Visible Light
Length of Day
Tomorrow will be .
, % of the Moon is Illuminated

Today's Extremes

State Highs State Lows

Community

WunderPhotos

Category 6

Welcome to Category 6. This is the collective home for Weather Underground's featured writeups by Dr. Jeff Masters (right), Bob Henson (left), Chris Burt, and other regular contributors.

Nearby

Air Quality

  Air Quality AQ Index Pollutant
Not available.

Snow Depth

Station Depth Elevation

Earthquake Activity

City Distance Mag. Time & Date
Minimum magnitude displayed is 2.5.

Coastal Water Temperatures

Place Temperature

Stations

Nearby Weather Stations

Station Location Temp. Windchill Dew Point Humidity Wind Precip. Elev Updated Type
                   

Watches & Warnings

Severe Thunderstorm Watch
Issued: 8:24 PM CDT Aug. 19, 2017 – National Weather Service

Severe Thunderstorm Watch 458 remains in effect until 100 am CDT

NE
. Nebraska counties included are

Adams Antelope Blaine
Boone Brown Buffalo
Chase Clay Custer
Dawson Dundy Fillmore
Franklin Frontier Furnas
Garfield Gosper Greeley
Hall Hamilton Harlan
Hayes Hitchcock Holt
Howard Kearney Keith
Knox Lincoln Logan
Loup McPherson Merrick
Nance Nuckolls Perkins
Phelps Platte Polk
Red Willow rock Sherman
Thayer Thomas Valley
Webster Wheeler York